Weather at Pointe Vele Airport

Public forecast

Using degrees Celsius for public forecast. Weather courtesy of forecast.io.

Current aviation weather report (METAR) for Pointe Vele Airport

Report is more than 6 hours old.

Retrieved 2010/09/17 00:37 UTC (12 years ago):

NLWF 170037Z 07006G12KT 040V090 9999 FEW012 SCT020 30/25 Q1012

Aviation forecast (TAF) for Pointe Vele Airport

Retrieved 2022/06/24 18:00 UTC (5 hours ago):

TAF NLWF 241700Z 2418/2518 13014KT 9999 SCT020 BKN040 TEMPO 2418/2424 13015G25KT 4000 SHRA BKN014 FEW020TCU PROB30 TEMPO 2418/2420 2500 +SHRA BKN009 SCT020CB PROB40 TEMPO 2512/2518 4000 SHRA